Alex, Louisiana
Current Conditions -  °F | °C
As of 1:53 PM on Saturday 25 Oct 2014 (Local Time) from KAEX Reporting Station
Clear Clear  
Wind Chill: 82°   Ceiling: Unl
Heat Index: 82°   Visibility: 10mi
Dew Point: 52°   Wind: 5mph
Humidity: 35%   Direction: NA
Pressure: 30.11"   Gusts: NA
Location:  31.2081°N, 92.3683°W
Report Text: KAEX 251853Z VRB04KT 10SM CLR 28/11 A3011 RMK AO2 SLP200 T02780111 $
Loading
Personal Weather Stations






























Interactive Weather Map
Tropical Storm Tracking
New forecast layout! Learn more

10-Day Weather Forecast

Advertisements
Track Severe Weather on mobile